Time;durP1;ratioP1;P1;durP2;ratioP2;P2;SDS_P1;SDS_P2;PMS_P1;PMS_P2;Temp;Humidity;BMP_temperature;BMP_pressure;BME280_temperature;BME280_humidity;BME280_pressure;Samples;Min_cycle;Max_cycle;Signal;HPM_P1;HPM_P2
2022/03/31 00:02:06;;;;;;;14.7;10.2;;;;;;;;;;;;;
2022/03/31 00:04:32;;;;;;;14.7;10;;;;;;;;;;;;;
2022/03/31 00:06:59;;;;;;;15.7;10.3;;;;;;;;;;;;;
2022/03/31 00:09:24;;;;;;;13.7;10.7;;;;;;;;;;;;;
2022/03/31 00:11:49;;;;;;;16.7;10.9;;;;;;;;;;;;;
2022/03/31 00:14:14;;;;;;;15.9;11.5;;;;;;;;;;;;;
2022/03/31 00:16:40;;;;;;;15;10.5;;;;;;;;;;;;;
2022/03/31 00:19:13;;;;;;;14.2;11.1;;;;;;;;;;;;;
2022/03/31 00:21:38;;;;;;;15.3;11;;;;;;;;;;;;;
2022/03/31 00:24:04;;;;;;;15.5;11.8;;;;;;;;;;;;;
2022/03/31 00:26:29;;;;;;;16.4;11.9;;;;;;;;;;;;;
2022/03/31 00:28:54;;;;;;;17.2;12.2;;;;;;;;;;;;;
2022/03/31 00:31:20;;;;;;;17.6;11.9;;;;;;;;;;;;;
2022/03/31 00:33:44;;;;;;;15;11.7;;;;;;;;;;;;;
2022/03/31 00:36:09;;;;;;;17.8;11.7;;;;;;;;;;;;;
2022/03/31 00:38:34;;;;;;;17;12.1;;;;;;;;;;;;;
2022/03/31 00:41:00;;;;;;;18;12;;;;;;;;;;;;;
2022/03/31 00:43:25;;;;;;;19.4;12.5;;;;;;;;;;;;;
2022/03/31 00:45:53;;;;;;;19.5;13.2;;;;;;;;;;;;;
2022/03/31 00:50:41;;;;;;;19.1;13.4;;;;;;;;;;;;;
2022/03/31 00:53:06;;;;;;;21;13.9;;;;;;;;;;;;;
2022/03/31 00:55:32;;;;;;;18.8;13.4;;;;;;;;;;;;;
2022/03/31 00:57:57;;;;;;;20.7;14.9;;;;;;;;;;;;;
2022/03/31 01:00:22;;;;;;;18.9;14.3;;;;;;;;;;;;;
2022/03/31 01:02:51;;;;;;;22.4;15.2;;;;;;;;;;;;;
2022/03/31 01:05:16;;;;;;;20.2;14.7;;;;;;;;;;;;;
2022/03/31 01:07:42;;;;;;;20.7;15.4;;;;;;;;;;;;;
2022/03/31 01:10:07;;;;;;;24.4;15.6;;;;;;;;;;;;;
2022/03/31 01:12:33;;;;;;;20.6;14.5;;;;;;;;;;;;;
2022/03/31 01:14:57;;;;;;;20.8;14.9;;;;;;;;;;;;;
2022/03/31 01:17:24;;;;;;;20.2;14.8;;;;;;;;;;;;;
2022/03/31 01:19:49;;;;;;;17.3;14.4;;;;;;;;;;;;;
2022/03/31 01:22:14;;;;;;;21.1;15.4;;;;;;;;;;;;;
2022/03/31 01:24:39;;;;;;;19;14.8;;;;;;;;;;;;;
2022/03/31 01:27:07;;;;;;;23.4;15.2;;;;;;;;;;;;;
2022/03/31 01:29:29;;;;;;;20.9;15.6;;;;;;;;;;;;;
2022/03/31 01:31:57;;;;;;;21.9;15.8;;;;;;;;;;;;;
2022/03/31 01:34:23;;;;;;;20.7;16.4;;;;;;;;;;;;;
2022/03/31 01:36:48;;;;;;;20.8;16;;;;;;;;;;;;;
2022/03/31 01:39:13;;;;;;;21;15.6;;;;;;;;;;;;;
2022/03/31 01:41:38;;;;;;;22.3;17;;;;;;;;;;;;;
2022/03/31 01:44:03;;;;;;;22.7;15.6;;;;;;;;;;;;;
2022/03/31 01:46:29;;;;;;;20.4;14.7;;;;;;;;;;;;;
2022/03/31 01:48:54;;;;;;;20.2;14.8;;;;;;;;;;;;;
2022/03/31 01:51:20;;;;;;;17.8;13.7;;;;;;;;;;;;;
2022/03/31 01:53:45;;;;;;;16.1;11.9;;;;;;;;;;;;;
2022/03/31 01:56:11;;;;;;;15.1;11;;;;;;;;;;;;;
2022/03/31 01:58:36;;;;;;;17;10.9;;;;;;;;;;;;;
2022/03/31 02:01:04;;;;;;;13.9;10.3;;;;;;;;;;;;;
2022/03/31 02:03:29;;;;;;;13.6;9.8;;;;;;;;;;;;;
2022/03/31 02:06:21;;;;;;;14.8;10.4;;;;;;;;;;;;;
2022/03/31 02:08:46;;;;;;;13;9.5;;;;;;;;;;;;;
2022/03/31 02:11:11;;;;;;;16.3;10.3;;;;;;;;;;;;;
2022/03/31 02:13:36;;;;;;;16.6;10.3;;;;;;;;;;;;;
2022/03/31 02:16:01;;;;;;;15.9;10.5;;;;;;;;;;;;;
2022/03/31 02:18:26;;;;;;;14.2;10.2;;;;;;;;;;;;;
2022/03/31 02:20:51;;;;;;;12;9.7;;;;;;;;;;;;;
2022/03/31 02:23:17;;;;;;;14;9.6;;;;;;;;;;;;;
2022/03/31 02:25:43;;;;;;;12;8.9;;;;;;;;;;;;;
2022/03/31 02:28:07;;;;;;;12;9.1;;;;;;;;;;;;;
2022/03/31 02:30:32;;;;;;;11.4;8.4;;;;;;;;;;;;;
2022/03/31 02:32:59;;;;;;;12;8.2;;;;;;;;;;;;;
2022/03/31 02:35:25;;;;;;;11.3;8.3;;;;;;;;;;;;;
2022/03/31 02:37:50;;;;;;;10.6;7.9;;;;;;;;;;;;;
2022/03/31 02:40:17;;;;;;;13.4;7.8;;;;;;;;;;;;;
2022/03/31 02:42:42;;;;;;;11.6;8.1;;;;;;;;;;;;;
2022/03/31 02:45:07;;;;;;;11.4;8.5;;;;;;;;;;;;;
2022/03/31 02:47:34;;;;;;;10.6;8.1;;;;;;;;;;;;;
2022/03/31 02:49:57;;;;;;;11.3;7.8;;;;;;;;;;;;;
2022/03/31 02:52:22;;;;;;;11.9;8.2;;;;;;;;;;;;;
2022/03/31 02:57:13;;;;;;;10.3;8.2;;;;;;;;;;;;;
2022/03/31 02:59:38;;;;;;;9.6;7.7;;;;;;;;;;;;;
2022/03/31 03:02:03;;;;;;;11.1;7.8;;;;;;;;;;;;;
2022/03/31 03:04:28;;;;;;;9.8;7.6;;;;;;;;;;;;;
2022/03/31 03:06:53;;;;;;;11.6;8.5;;;;;;;;;;;;;
2022/03/31 03:09:19;;;;;;;10.8;7.3;;;;;;;;;;;;;
2022/03/31 03:11:43;;;;;;;12;8.1;;;;;;;;;;;;;
2022/03/31 03:14:23;;;;;;;11.3;8.2;;;;;;;;;;;;;
2022/03/31 03:16:34;;;;;;;12;7.6;;;;;;;;;;;;;
2022/03/31 03:18:59;;;;;;;10.3;7.7;;;;;;;;;;;;;
2022/03/31 03:21:24;;;;;;;9.9;7.8;;;;;;;;;;;;;
2022/03/31 03:23:50;;;;;;;9.5;7.5;;;;;;;;;;;;;
2022/03/31 03:26:15;;;;;;;13.6;8.5;;;;;;;;;;;;;
2022/03/31 03:28:41;;;;;;;10.9;8.1;;;;;;;;;;;;;
2022/03/31 03:31:06;;;;;;;11.6;7.9;;;;;;;;;;;;;
2022/03/31 03:33:31;;;;;;;10.9;8;;;;;;;;;;;;;
2022/03/31 03:35:57;;;;;;;12;8.1;;;;;;;;;;;;;
2022/03/31 03:38:22;;;;;;;11;8;;;;;;;;;;;;;
2022/03/31 03:40:48;;;;;;;11.2;7.9;;;;;;;;;;;;;
2022/03/31 03:43:13;;;;;;;10.5;8.2;;;;;;;;;;;;;
2022/03/31 03:45:38;;;;;;;12.3;9.1;;;;;;;;;;;;;
2022/03/31 03:48:03;;;;;;;11.6;8.2;;;;;;;;;;;;;
2022/03/31 03:50:28;;;;;;;10.5;7.6;;;;;;;;;;;;;
2022/03/31 03:52:54;;;;;;;10.9;7.9;;;;;;;;;;;;;
2022/03/31 03:55:19;;;;;;;10.3;8;;;;;;;;;;;;;
2022/03/31 03:57:44;;;;;;;11.6;8;;;;;;;;;;;;;
2022/03/31 04:02:33;;;;;;;11.7;8.2;;;;;;;9.15;84.86914;917.2928;;;;
2022/03/31 04:05:02;;;;;;;10.1;7.9;;;;;;;9.08;85.49219;917.337;;;;
2022/03/31 04:07:27;;;;;;;11.8;8.3;;;;;;;8.92;86.79199;917.3452;;;;
2022/03/31 04:09:58;;;;;;;12.5;8.5;;;;;;;8.79;87.2998;917.3061;;;;
2022/03/31 04:12:22;;;;;;;9.9;7.8;;;;;;;8.83;87.27246;917.2533;;;;
2022/03/31 04:16:23;;;;;;;11.6;8.6;;;;;;;8.9;87.12793;917.1259;;;;
2022/03/31 04:18:33;;;;;;;12.9;9.1;;;;;;;8.82;87.7959;917.2241;;;;
2022/03/31 04:21:02;;;;;;;10.4;8.3;;;;;;;8.65;88.39551;917.2205;;;;
2022/03/31 04:23:25;;;;;;;12.6;8.8;;;;;;;8.62;89.15137;917.2234;;;;
2022/03/31 04:25:53;;;;;;;12.8;8.8;;;;;;;8.65;88.69336;917.1594;;;;
2022/03/31 04:28:19;;;;;;;13.5;9;;;;;;;8.68;89.09473;917.1795;;;;
2022/03/31 04:30:47;;;;;;;12.6;9.2;;;;;;;8.8;88.7793;917.133;;;;
2022/03/31 04:33:12;;;;;;;11.6;9.1;;;;;;;8.84;88.44727;917.1309;;;;
2022/03/31 04:36:00;;;;;;;13.2;9.9;;;;;;;8.82;88.54492;917.1083;;;;
2022/03/31 04:38:27;;;;;;;14.8;9.5;;;;;;;8.87;88.39453;917.0964;;;;
2022/03/31 04:40:52;;;;;;;13;9.6;;;;;;;8.84;88.60645;917.134;;;;
2022/03/31 04:43:19;;;;;;;14.8;9.4;;;;;;;8.82;89.08984;917.1433;;;;
2022/03/31 04:45:44;;;;;;;12.6;9.2;;;;;;;8.8;88.63184;917.1781;;;;
2022/03/31 04:48:12;;;;;;;12;8.8;;;;;;;8.8;88.5293;917.1822;;;;
2022/03/31 04:50:37;;;;;;;11;8.7;;;;;;;8.84;88.19727;917.1356;;;;
2022/03/31 04:53:06;;;;;;;12.1;9;;;;;;;8.84;87.93555;917.1348;;;;
2022/03/31 04:55:30;;;;;;;11.9;8.9;;;;;;;8.92;87.37207;917.1239;;;;
2022/03/31 04:57:55;;;;;;;11.7;9.1;;;;;;;8.77;87.81836;917.0693;;;;
2022/03/31 05:00:20;;;;;;;12.3;9.8;;;;;;;8.75;87.93848;917.1411;;;;
2022/03/31 05:02:45;;;;;;;14.6;9.5;;;;;;;8.85;87.67578;917.134;;;;
2022/03/31 05:05:14;;;;;;;12.6;8.7;;;;;;;8.69;87.84961;917.0492;;;;
2022/03/31 05:07:38;;;;;;;15.5;9.4;;;;;;;8.77;87.53418;917.0986;;;;
2022/03/31 05:10:03;;;;;;;15.2;9.6;;;;;;;8.8;87.20996;917.0829;;;;
2022/03/31 05:12:29;;;;;;;13.6;9.5;;;;;;;8.89;86.85352;917.0823;;;;
2022/03/31 05:14:54;;;;;;;11.7;8.9;;;;;;;8.96;86.52441;917.0842;;;;
2022/03/31 05:17:19;;;;;;;12.8;9.2;;;;;;;8.83;87.03418;917.0883;;;;
2022/03/31 05:19:44;;;;;;;15.3;9.3;;;;;;;8.89;86.60254;917.1078;;;;
2022/03/31 05:22:11;;;;;;;14.2;9.5;;;;;;;8.9;86.44531;917.0616;;;;
2022/03/31 05:24:36;;;;;;;14.5;10;;;;;;;8.88;86.25977;917.1207;;;;
2022/03/31 05:27:03;;;;;;;15.4;9.9;;;;;;;8.88;85.94141;917.0962;;;;
2022/03/31 05:29:28;;;;;;;13;10.2;;;;;;;8.78;86.47852;917.1127;;;;
2022/03/31 05:31:55;;;;;;;14.9;10.6;;;;;;;8.83;86.3291;917.0732;;;;
2022/03/31 05:34:21;;;;;;;17.6;11.3;;;;;;;8.62;86.80957;917.1306;;;;
2022/03/31 05:36:47;;;;;;;18;12.3;;;;;;;8.6;87.3291;917.1124;;;;
2022/03/31 05:39:12;;;;;;;16.1;11.4;;;;;;;8.58;87.60742;917.116;;;;
2022/03/31 05:41:38;;;;;;;19.9;13.4;;;;;;;8.51;88.15332;917.0751;;;;
2022/03/31 05:44:03;;;;;;;17.5;13.2;;;;;;;8.5;88.06836;917.0928;;;;
2022/03/31 05:46:29;;;;;;;18;13.3;;;;;;;8.61;87.84277;917.1314;;;;
2022/03/31 05:48:54;;;;;;;18.5;13.5;;;;;;;8.47;88.22168;917.1591;;;;
2022/03/31 05:51:19;;;;;;;17.9;13.3;;;;;;;8.61;87.88574;917.064;;;;
2022/03/31 05:56:09;;;;;;;18.7;14.3;;;;;;;8.57;87.91504;917.0852;;;;
2022/03/31 05:58:34;;;;;;;18.5;13.9;;;;;;;8.62;87.73047;917.0378;;;;
2022/03/31 06:00:59;;;;;;;16.9;14.1;;;;;;;8.63;87.87891;917.0639;;;;
2022/03/31 06:03:25;;;;;;;20.3;14;;;;;;;8.68;87.44824;917.0581;;;;
2022/03/31 06:05:51;;;;;;;20.7;14.1;;;;;;;8.47;88.44922;916.9894;;;;
2022/03/31 06:08:17;;;;;;;19.7;14.7;;;;;;;8.55;88.78418;916.9911;;;;
2022/03/31 06:10:41;;;;;;;19;13.6;;;;;;;8.64;88.34863;917.0653;;;;
2022/03/31 06:13:07;;;;;;;18;13.4;;;;;;;8.69;87.98633;917.0588;;;;
2022/03/31 06:15:34;;;;;;;20.5;13.7;;;;;;;8.75;87.74512;917.0442;;;;
2022/03/31 06:17:57;;;;;;;21.7;13.9;;;;;;;8.78;87.68457;917.0627;;;;
2022/03/31 06:20:23;;;;;;;18.8;14;;;;;;;8.85;87.5625;917.0911;;;;
2022/03/31 06:22:48;;;;;;;19;13.8;;;;;;;8.67;88.31055;917.1052;;;;
2022/03/31 06:25:16;;;;;;;20.8;13.8;;;;;;;8.74;87.93652;917.0508;;;;
2022/03/31 06:27:40;;;;;;;18.1;13.8;;;;;;;8.78;88.33203;917.0691;;;;
2022/03/31 06:30:07;;;;;;;17.8;13.3;;;;;;;8.62;88.76465;917.0751;;;;
2022/03/31 06:32:32;;;;;;;19.5;13.6;;;;;;;8.75;88.54102;917.0435;;;;
2022/03/31 06:34:59;;;;;;;20.3;14.6;;;;;;;8.86;88.01758;917.0458;;;;
2022/03/31 06:37:24;;;;;;;17.5;13.4;;;;;;;8.86;88.03027;917.0457;;;;
2022/03/31 06:39:50;;;;;;;20.6;15.5;;;;;;;8.93;87.63379;917.0603;;;;
2022/03/31 06:42:46;;;;;;;19.8;15.5;;;;;;;8.79;88.42285;917.0221;;;;
2022/03/31 06:45:12;;;;;;;20.8;16;;;;;;;8.91;88.00586;917.0479;;;;
2022/03/31 06:47:39;;;;;;;22.2;16.2;;;;;;;8.93;87.57715;916.9404;;;;
2022/03/31 06:50:04;;;;;;;21.9;15.2;;;;;;;8.8;88.04004;916.9481;;;;
2022/03/31 06:52:29;;;;;;;23.8;16.2;;;;;;;8.84;88.74316;916.9459;;;;
2022/03/31 06:54:54;;;;;;;21.5;16.1;;;;;;;8.8;88.76855;916.853;;;;
2022/03/31 06:57:20;;;;;;;21.5;16.5;;;;;;;8.9;88.15137;916.8474;;;;
2022/03/31 06:59:46;;;;;;;21.8;16.2;;;;;;;8.84;88.36816;916.8945;;;;
2022/03/31 07:02:11;;;;;;;25.3;17.2;;;;;;;8.94;87.58105;916.8957;;;;
2022/03/31 07:04:36;;;;;;;22.1;16.4;;;;;;;9.02;87.4043;916.8794;;;;
2022/03/31 07:07:03;;;;;;;21.9;16.4;;;;;;;9.07;86.88965;916.8681;;;;
2022/03/31 07:09:28;;;;;;;23.6;16.1;;;;;;;9.12;86.51172;916.7958;;;;
2022/03/31 07:11:55;;;;;;;21.7;16.2;;;;;;;9.17;86.2832;916.7916;;;;
2022/03/31 07:14:20;;;;;;;21.3;16.5;;;;;;;9.21;85.93848;916.7637;;;;
2022/03/31 07:16:45;;;;;;;21.7;15.8;;;;;;;9.25;85.65234;916.6995;;;;
2022/03/31 07:19:10;;;;;;;21.5;15.8;;;;;;;9.27;85.44922;916.7644;;;;
2022/03/31 07:21:36;;;;;;;20.9;15.2;;;;;;;9.36;85.17188;916.7974;;;;
2022/03/31 07:24:02;;;;;;;21.2;15.2;;;;;;;9.12;85.69434;916.725;;;;
2022/03/31 07:26:27;;;;;;;20.8;15.3;;;;;;;9.2;86.06348;916.7829;;;;
2022/03/31 07:28:52;;;;;;;21.4;14.6;;;;;;;9.29;85.86328;916.7766;;;;
2022/03/31 07:31:18;;;;;;;19.6;14.7;;;;;;;9.25;86.5166;916.7234;;;;
2022/03/31 07:33:44;;;;;;;21.1;15.7;;;;;;;9.38;85.6875;916.7803;;;;
2022/03/31 07:36:12;;;;;;;21.7;14.4;;;;;;;9.47;84.71289;916.7406;;;;
2022/03/31 07:38:37;;;;;;;20.2;14.9;;;;;;;9.51;84.3457;916.6254;;;;
2022/03/31 07:41:03;;;;;;;19.9;14.8;;;;;;;;;;;;;
2022/03/31 07:43:27;;;;;;;20.4;14.2;;;;;;;;;;;;;
2022/03/31 07:45:52;;;;;;;21.1;14.7;;;;;;;;;;;;;
2022/03/31 07:48:18;;;;;;;19.2;14.3;;;;;;;;;;;;;
2022/03/31 07:50:42;;;;;;;21.6;14.7;;;;;;;;;;;;;
2022/03/31 07:53:07;;;;;;;20.9;14.8;;;;;;;;;;;;;
2022/03/31 07:55:33;;;;;;;20.9;14.8;;;;;;;;;;;;;
2022/03/31 07:57:58;;;;;;;20.5;15.1;;;;;;;;;;;;;
2022/03/31 08:00:23;;;;;;;19.7;14.1;;;;;;;;;;;;;
2022/03/31 08:02:48;;;;;;;21;14.3;;;;;;;;;;;;;
2022/03/31 08:05:13;;;;;;;22.8;15;;;;;;;;;;;;;
2022/03/31 08:07:38;;;;;;;24.6;14.8;;;;;;;;;;;;;
2022/03/31 08:10:03;;;;;;;17.6;13.4;;;;;;;;;;;;;
2022/03/31 08:12:28;;;;;;;20;13.6;;;;;;;;;;;;;
2022/03/31 08:14:54;;;;;;;19.7;13.7;;;;;;;;;;;;;
2022/03/31 08:17:19;;;;;;;19.3;13.2;;;;;;;;;;;;;
2022/03/31 08:19:44;;;;;;;19.3;13.5;;;;;;;;;;;;;
2022/03/31 08:22:09;;;;;;;19.7;13.2;;;;;;;;;;;;;
2022/03/31 08:24:34;;;;;;;17.4;13.3;;;;;;;;;;;;;
2022/03/31 08:27:00;;;;;;;17.1;13.2;;;;;;;;;;;;;
2022/03/31 08:29:25;;;;;;;18.9;12.8;;;;;;;;;;;;;
2022/03/31 08:31:49;;;;;;;18.9;13.5;;;;;;;;;;;;;
2022/03/31 08:34:15;;;;;;;19.4;13.3;;;;;;;;;;;;;
2022/03/31 08:36:40;;;;;;;21.1;13.3;;;;;;;;;;;;;
2022/03/31 08:39:05;;;;;;;21.7;13.5;;;;;;;;;;;;;
2022/03/31 08:41:30;;;;;;;17.7;13;;;;;;;;;;;;;
2022/03/31 08:43:55;;;;;;;20.7;14.3;;;;;;;;;;;;;
2022/03/31 08:46:20;;;;;;;20;13.5;;;;;;;;;;;;;
2022/03/31 08:48:45;;;;;;;19.4;14.8;;;;;;;;;;;;;
2022/03/31 08:51:11;;;;;;;19.8;14.3;;;;;;;;;;;;;
2022/03/31 08:53:36;;;;;;;19.5;13.8;;;;;;;;;;;;;
2022/03/31 08:56:01;;;;;;;19.3;14.5;;;;;;;;;;;;;
2022/03/31 08:58:27;;;;;;;17.8;13.1;;;;;;;;;;;;;
2022/03/31 09:00:51;;;;;;;21.5;14;;;;;;;;;;;;;
2022/03/31 09:03:18;;;;;;;19.2;13;;;;;;;;;;;;;
2022/03/31 09:05:45;;;;;;;17.2;13.1;;;;;;;;;;;;;
2022/03/31 09:08:09;;;;;;;18.8;13.5;;;;;;;;;;;;;
2022/03/31 09:10:33;;;;;;;20;14.3;;;;;;;;;;;;;
2022/03/31 09:12:58;;;;;;;21.5;12.6;;;;;;;;;;;;;
2022/03/31 09:15:24;;;;;;;17.8;12.9;;;;;;;;;;;;;
2022/03/31 09:17:48;;;;;;;18.9;12.6;;;;;;;;;;;;;
2022/03/31 09:20:14;;;;;;;15.8;11.8;;;;;;;;;;;;;
2022/03/31 09:22:39;;;;;;;18.4;12.3;;;;;;;;;;;;;
2022/03/31 09:25:05;;;;;;;19.5;12.1;;;;;;;;;;;;;
2022/03/31 09:27:30;;;;;;;18.6;11.5;;;;;;;;;;;;;
2022/03/31 09:29:55;;;;;;;14.8;11.2;;;;;;;;;;;;;
2022/03/31 09:32:21;;;;;;;18.1;11.9;;;;;;;;;;;;;
2022/03/31 09:34:45;;;;;;;16.1;11.5;;;;;;;;;;;;;
2022/03/31 09:37:10;;;;;;;16.1;11.6;;;;;;;;;;;;;
2022/03/31 09:39:36;;;;;;;15.8;11.6;;;;;;;;;;;;;
2022/03/31 09:42:00;;;;;;;15.7;11.5;;;;;;;;;;;;;
2022/03/31 09:44:26;;;;;;;14.5;11.3;;;;;;;;;;;;;
2022/03/31 09:46:52;;;;;;;16.2;10.8;;;;;;;;;;;;;
2022/03/31 09:49:17;;;;;;;17.2;11.4;;;;;;;;;;;;;
2022/03/31 09:51:42;;;;;;;15.9;11.8;;;;;;;;;;;;;
2022/03/31 09:54:07;;;;;;;17.7;11.6;;;;;;;;;;;;;
2022/03/31 09:58:57;;;;;;;15.6;11.4;;;;;;;;;;;;;
2022/03/31 10:01:22;;;;;;;19.1;12.1;;;;;;;;;;;;;
2022/03/31 10:03:49;;;;;;;17.5;11.9;;;;;;;;;;;;;
2022/03/31 10:06:13;;;;;;;13.9;10.8;;;;;;;;;;;;;
2022/03/31 10:08:42;;;;;;;16.5;11.7;;;;;;;;;;;;;
2022/03/31 10:11:03;;;;;;;17.5;11.4;;;;;;;;;;;;;
2022/03/31 10:13:30;;;;;;;18.8;11.1;;;;;;;;;;;;;
2022/03/31 10:15:55;;;;;;;15.4;11;;;;;;;;;;;;;
2022/03/31 10:18:20;;;;;;;15.5;12;;;;;;;;;;;;;
2022/03/31 10:20:45;;;;;;;18.4;11.5;;;;;;;;;;;;;
2022/03/31 10:25:36;;;;;;;15;11.4;;;;;;;;;;;;;
2022/03/31 10:28:02;;;;;;;15.4;11.5;;;;;;;;;;;;;
2022/03/31 10:30:26;;;;;;;15.7;11.6;;;;;;;;;;;;;
2022/03/31 10:32:51;;;;;;;16.4;11.1;;;;;;;;;;;;;
2022/03/31 10:35:16;;;;;;;16.6;11.9;;;;;;;;;;;;;
2022/03/31 10:37:41;;;;;;;17.3;12.1;;;;;;;;;;;;;
2022/03/31 10:40:06;;;;;;;14.5;11;;;;;;;;;;;;;
2022/03/31 10:42:32;;;;;;;15.8;11.3;;;;;;;;;;;;;
2022/03/31 10:44:57;;;;;;;16.2;11.5;;;;;;;;;;;;;
2022/03/31 10:47:22;;;;;;;16.4;10.6;;;;;;;;;;;;;
2022/03/31 10:49:48;;;;;;;14.3;11.1;;;;;;;;;;;;;
2022/03/31 10:52:15;;;;;;;15.6;10.8;;;;;;;;;;;;;
2022/03/31 10:54:38;;;;;;;17.7;11.6;;;;;;;;;;;;;
2022/03/31 10:57:03;;;;;;;14.4;10.8;;;;;;;;;;;;;
2022/03/31 10:59:28;;;;;;;14.9;11.5;;;;;;;;;;;;;
2022/03/31 11:01:53;;;;;;;14.4;11.4;;;;;;;;;;;;;
2022/03/31 11:04:18;;;;;;;18.3;11.6;;;;;;;;;;;;;
2022/03/31 11:06:57;;;;;;;14.7;11.2;;;;;;;;;;;;;
2022/03/31 11:09:22;;;;;;;16.2;11.3;;;;;;;;;;;;;
2022/03/31 11:11:49;;;;;;;16.2;11.2;;;;;;;;;;;;;
2022/03/31 11:14:13;;;;;;;14.5;10.7;;;;;;;;;;;;;
2022/03/31 11:16:38;;;;;;;13.6;9.9;;;;;;;;;;;;;
2022/03/31 11:19:04;;;;;;;15.3;10.1;;;;;;;;;;;;;
2022/03/31 11:21:29;;;;;;;17;10.1;;;;;;;;;;;;;
2022/03/31 11:23:57;;;;;;;15.2;10;;;;;;;;;;;;;
2022/03/31 11:26:19;;;;;;;18.2;10.6;;;;;;;;;;;;;
2022/03/31 11:28:45;;;;;;;12;9.1;;;;;;;;;;;;;
2022/03/31 11:31:10;;;;;;;15.2;9;;;;;;;;;;;;;
2022/03/31 11:33:35;;;;;;;12.7;8.4;;;;;;;;;;;;;
2022/03/31 11:36:00;;;;;;;13.1;8.7;;;;;;;;;;;;;
2022/03/31 11:38:27;;;;;;;15.6;9.1;;;;;;;;;;;;;
2022/03/31 11:40:51;;;;;;;14.9;8.1;;;;;;;;;;;;;
2022/03/31 11:43:17;;;;;;;12.9;8.3;;;;;;;;;;;;;
2022/03/31 11:45:43;;;;;;;16.1;8.9;;;;;;;;;;;;;
2022/03/31 11:48:07;;;;;;;14.6;8.1;;;;;;;;;;;;;
2022/03/31 11:50:35;;;;;;;14.2;8;;;;;;;;;;;;;
2022/03/31 11:53:02;;;;;;;13.7;7.9;;;;;;;;;;;;;
2022/03/31 11:55:26;;;;;;;14;8.2;;;;;;;;;;;;;
2022/03/31 11:57:51;;;;;;;11.6;7.4;;;;;;;;;;;;;
2022/03/31 12:00:16;;;;;;;15.6;8.1;;;;;;;;;;;;;
2022/03/31 12:02:43;;;;;;;13;7.9;;;;;;;;;;;;;
2022/03/31 12:05:07;;;;;;;12.5;7.9;;;;;;;;;;;;;
2022/03/31 12:07:33;;;;;;;15.3;7.9;;;;;;;;;;;;;
2022/03/31 12:09:59;;;;;;;14.3;8.1;;;;;;;;;;;;;
2022/03/31 12:12:25;;;;;;;13.7;8.2;;;;;;;;;;;;;
2022/03/31 12:14:50;;;;;;;11.6;7.9;;;;;;;;;;;;;
2022/03/31 12:17:15;;;;;;;15.3;8.3;;;;;;;;;;;;;
2022/03/31 12:19:40;;;;;;;14.1;8.1;;;;;;;;;;;;;
2022/03/31 12:22:05;;;;;;;14.6;8.2;;;;;;;;;;;;;
2022/03/31 12:24:30;;;;;;;11.7;7.6;;;;;;;;;;;;;
2022/03/31 12:26:56;;;;;;;12;7.5;;;;;;;;;;;;;
2022/03/31 12:31:46;;;;;;;10.9;7.6;;;;;;;;;;;;;
2022/03/31 12:34:11;;;;;;;11;6.8;;;;;;;;;;;;;
2022/03/31 12:36:36;;;;;;;10.6;7.2;;;;;;;;;;;;;
2022/03/31 12:39:03;;;;;;;9.6;6.7;;;;;;;;;;;;;
2022/03/31 12:41:29;;;;;;;10.5;6;;;;;;;;;;;;;
2022/03/31 12:43:52;;;;;;;9.9;5.9;;;;;;;;;;;;;
2022/03/31 12:46:17;;;;;;;11.5;5.4;;;;;;;;;;;;;
2022/03/31 12:48:42;;;;;;;11.2;5.6;;;;;;;;;;;;;
2022/03/31 12:51:07;;;;;;;9.2;5.1;;;;;;;;;;;;;
2022/03/31 12:53:32;;;;;;;10.2;6.3;;;;;;;;;;;;;
2022/03/31 12:55:57;;;;;;;9.3;5.9;;;;;;;;;;;;;
2022/03/31 12:58:22;;;;;;;10.4;6.4;;;;;;;;;;;;;
2022/03/31 13:00:48;;;;;;;10.2;6.7;;;;;;;;;;;;;
2022/03/31 13:03:13;;;;;;;12.3;7.1;;;;;;;;;;;;;
2022/03/31 13:05:38;;;;;;;11.4;6.3;;;;;;;;;;;;;
2022/03/31 13:08:03;;;;;;;11.5;6.3;;;;;;;;;;;;;
2022/03/31 13:10:29;;;;;;;11.8;6;;;;;;;;;;;;;
2022/03/31 13:12:54;;;;;;;9.5;5.6;;;;;;;;;;;;;
2022/03/31 13:15:21;;;;;;;12.7;6.4;;;;;;;;;;;;;
2022/03/31 13:17:45;;;;;;;13.4;6.5;;;;;;;;;;;;;
2022/03/31 13:20:10;;;;;;;10.9;6;;;;;;;;;;;;;
2022/03/31 13:22:35;;;;;;;9.2;5.7;;;;;;;;;;;;;
2022/03/31 13:25:00;;;;;;;10.1;6.4;;;;;;;;;;;;;
2022/03/31 13:27:25;;;;;;;10.6;6.5;;;;;;;;;;;;;
2022/03/31 13:30:01;;;;;;;13.5;6.5;;;;;;;;;;;;;
2022/03/31 13:32:26;;;;;;;11.3;6.6;;;;;;;;;;;;;
2022/03/31 13:34:51;;;;;;;11.4;7;;;;;;;;;;;;;
2022/03/31 13:37:17;;;;;;;11.8;6.7;;;;;;;;;;;;;
2022/03/31 13:39:46;;;;;;;12.1;5.7;;;;;;;;;;;;;
2022/03/31 13:42:11;;;;;;;13.9;6.8;;;;;;;;;;;;;
2022/03/31 13:44:36;;;;;;;11.9;6.4;;;;;;;;;;;;;
2022/03/31 13:47:03;;;;;;;12.4;5.8;;;;;;;;;;;;;
2022/03/31 13:49:27;;;;;;;11.8;6;;;;;;;;;;;;;
2022/03/31 13:51:52;;;;;;;15.4;6.4;;;;;;;;;;;;;
2022/03/31 13:54:17;;;;;;;10.1;6.1;;;;;;;;;;;;;
2022/03/31 13:56:42;;;;;;;11.1;5.3;;;;;;;;;;;;;
2022/03/31 14:01:34;;;;;;;14.6;6.1;;;;;;;;;;;;;
2022/03/31 14:03:58;;;;;;;13.5;6.2;;;;;;;;;;;;;
2022/03/31 14:06:23;;;;;;;12.1;5.7;;;;;;;;;;;;;
2022/03/31 14:08:49;;;;;;;12.2;6.3;;;;;;;;;;;;;
2022/03/31 14:13:39;;;;;;;13.6;5.3;;;;;;;;;;;;;
2022/03/31 14:16:04;;;;;;;15;5.6;;;;;;;;;;;;;
2022/03/31 14:18:30;;;;;;;13.4;5.1;;;;;;;;;;;;;
2022/03/31 14:20:55;;;;;;;10.1;4.9;;;;;;;;;;;;;
2022/03/31 14:23:20;;;;;;;10.9;5.2;;;;;;;;;;;;;
2022/03/31 14:25:45;;;;;;;9.8;4.4;;;;;;;;;;;;;
2022/03/31 14:28:21;;;;;;;10.3;4.3;;;;;;;;;;;;;
2022/03/31 14:30:46;;;;;;;8.9;4.5;;;;;;;;;;;;;
2022/03/31 14:33:11;;;;;;;9.2;4.4;;;;;;;;;;;;;
2022/03/31 14:35:36;;;;;;;8;4.7;;;;;;;;;;;;;
2022/03/31 14:38:01;;;;;;;8.1;4;;;;;;;;;;;;;
2022/03/31 14:40:27;;;;;;;11.9;5;;;;;;;;;;;;;
2022/03/31 14:42:52;;;;;;;10.1;4.6;;;;;;;;;;;;;
2022/03/31 14:45:17;;;;;;;11.4;4.8;;;;;;;;;;;;;
2022/03/31 14:47:43;;;;;;;8.5;4.6;;;;;;;;;;;;;
2022/03/31 14:50:07;;;;;;;9.9;4.3;;;;;;;;;;;;;
2022/03/31 14:52:32;;;;;;;8.5;4.2;;;;;;;;;;;;;
2022/03/31 14:54:57;;;;;;;10.6;4.4;;;;;;;;;;;;;
2022/03/31 14:57:23;;;;;;;9.6;5.2;;;;;;;;;;;;;
2022/03/31 14:59:48;;;;;;;8.8;4.8;;;;;;;;;;;;;
2022/03/31 15:02:14;;;;;;;10.8;5.3;;;;;;;;;;;;;
2022/03/31 15:04:39;;;;;;;8;4.6;;;;;;;;;;;;;
2022/03/31 15:07:04;;;;;;;7.8;4.5;;;;;;;;;;;;;
2022/03/31 15:14:34;;;;;;;10.3;5;;;;;;;;;;;;;
2022/03/31 15:16:44;;;;;;;7.9;4.6;;;;;;;;;;;;;
2022/03/31 15:19:10;;;;;;;13.4;4.9;;;;;;;;;;;;;
2022/03/31 15:21:35;;;;;;;10.2;4.7;;;;;;;;;;;;;
2022/03/31 15:24:01;;;;;;;10.6;4.9;;;;;;;;;;;;;
2022/03/31 15:26:26;;;;;;;8.8;4.4;;;;;;;;;;;;;
2022/03/31 15:28:52;;;;;;;5.9;4;;;;;;;;;;;;;
2022/03/31 15:31:17;;;;;;;10.6;4.9;;;;;;;;;;;;;
2022/03/31 15:33:42;;;;;;;7.2;4.4;;;;;;;;;;;;;
2022/03/31 15:36:08;;;;;;;7.8;4.6;;;;;;;;;;;;;
2022/03/31 15:38:33;;;;;;;8;4.2;;;;;;;;;;;;;
2022/03/31 15:40:58;;;;;;;10.4;4.7;;;;;;;;;;;;;
2022/03/31 15:43:23;;;;;;;7.8;4.2;;;;;;;;;;;;;
2022/03/31 15:45:48;;;;;;;8.6;4.7;;;;;;;;;;;;;
2022/03/31 15:48:13;;;;;;;10.6;4.7;;;;;;;;;;;;;
2022/03/31 15:50:39;;;;;;;8.1;4.5;;;;;;;;;;;;;
2022/03/31 15:53:03;;;;;;;8.8;4.5;;;;;;;;;;;;;
2022/03/31 15:55:28;;;;;;;8.7;4.1;;;;;;;;;;;;;
2022/03/31 15:57:54;;;;;;;8.2;4.3;;;;;;;;;;;;;
2022/03/31 16:00:19;;;;;;;7;4.5;;;;;;;;;;;;;
2022/03/31 16:02:44;;;;;;;7;4.3;;;;;;;;;;;;;
2022/03/31 16:05:09;;;;;;;6.5;4.2;;;;;;;;;;;;;
2022/03/31 16:07:35;;;;;;;6.1;4.4;;;;;;;;;;;;;
2022/03/31 16:10:00;;;;;;;9.1;4.8;;;;;;;;;;;;;
2022/03/31 16:12:25;;;;;;;8.2;4.4;;;;;;;;;;;;;
2022/03/31 16:14:50;;;;;;;8.9;4.3;;;;;;;;;;;;;
2022/03/31 16:17:16;;;;;;;7.6;4.4;;;;;;;;;;;;;
2022/03/31 16:19:41;;;;;;;9;4.7;;;;;;;;;;;;;
2022/03/31 16:22:06;;;;;;;8.6;4.7;;;;;;;;;;;;;
2022/03/31 16:24:31;;;;;;;11;4.9;;;;;;;;;;;;;
2022/03/31 16:26:56;;;;;;;9.2;5;;;;;;;;;;;;;
2022/03/31 16:29:21;;;;;;;8.6;4.7;;;;;;;;;;;;;
2022/03/31 16:31:46;;;;;;;7.5;4.7;;;;;;;;;;;;;
2022/03/31 16:34:12;;;;;;;8.5;5.2;;;;;;;;;;;;;
2022/03/31 16:36:37;;;;;;;7;4.7;;;;;;;;;;;;;
2022/03/31 16:39:02;;;;;;;9.1;5.2;;;;;;;;;;;;;
2022/03/31 16:41:27;;;;;;;7.5;4.8;;;;;;;;;;;;;
2022/03/31 16:43:52;;;;;;;7.3;4.4;;;;;;;;;;;;;
2022/03/31 16:46:17;;;;;;;7.5;4;;;;;;;;;;;;;
2022/03/31 16:48:42;;;;;;;9.3;4.9;;;;;;;;;;;;;
2022/03/31 16:51:08;;;;;;;6.8;4.4;;;;;;;;;;;;;
2022/03/31 16:53:33;;;;;;;8.5;4.7;;;;;;;;;;;;;
2022/03/31 16:55:58;;;;;;;7.6;4.4;;;;;;;;;;;;;
2022/03/31 16:58:23;;;;;;;7;4.5;;;;;;;;;;;;;
2022/03/31 17:00:48;;;;;;;8.4;5.1;;;;;;;;;;;;;
2022/03/31 17:03:13;;;;;;;13;5;;;;;;;;;;;;;
2022/03/31 17:05:38;;;;;;;7.6;4.7;;;;;;;;;;;;;
2022/03/31 17:08:04;;;;;;;7.8;4.7;;;;;;;;;;;;;
2022/03/31 17:10:29;;;;;;;8.9;4.7;;;;;;;;;;;;;
2022/03/31 17:12:54;;;;;;;6.8;4.6;;;;;;;;;;;;;
2022/03/31 17:15:19;;;;;;;6.8;4.6;;;;;;;;;;;;;
2022/03/31 17:17:44;;;;;;;7.5;4.5;;;;;;;;;;;;;
2022/03/31 17:20:10;;;;;;;7.8;4.9;;;;;;;;;;;;;
2022/03/31 17:22:36;;;;;;;10.5;5.1;;;;;;;;;;;;;
2022/03/31 17:25:01;;;;;;;9;5.1;;;;;;;;;;;;;
2022/03/31 17:27:26;;;;;;;7.5;4.9;;;;;;;;;;;;;
2022/03/31 17:29:51;;;;;;;8.2;4.8;;;;;;;;;;;;;
2022/03/31 17:32:17;;;;;;;10.2;4.9;;;;;;;;;;;;;
2022/03/31 17:34:42;;;;;;;8.6;5;;;;;;;;;;;;;
2022/03/31 17:37:06;;;;;;;8.4;5.1;;;;;;;;;;;;;
2022/03/31 17:39:33;;;;;;;8.2;5.3;;;;;;;;;;;;;
2022/03/31 17:41:58;;;;;;;10;5.4;;;;;;;;;;;;;
2022/03/31 17:44:22;;;;;;;7.5;5;;;;;;;;;;;;;
2022/03/31 17:46:48;;;;;;;11.5;5.7;;;;;;;;;;;;;
2022/03/31 17:49:13;;;;;;;12;5.9;;;;;;;;;;;;;
2022/03/31 17:51:38;;;;;;;7.9;5.6;;;;;;;;;;;;;
2022/03/31 17:54:03;;;;;;;11.5;6;;;;;;;;;;;;;
2022/03/31 17:56:29;;;;;;;8;5.6;;;;;;;;;;;;;
2022/03/31 17:58:54;;;;;;;10.1;6;;;;;;;;;;;;;
2022/03/31 18:01:19;;;;;;;13;6.2;;;;;;;;;;;;;
2022/03/31 18:03:45;;;;;;;11.1;6.2;;;;;;;;;;;;;
2022/03/31 18:06:10;;;;;;;12.5;6.8;;;;;;;;;;;;;
2022/03/31 18:08:35;;;;;;;10.9;6.9;;;;;;;;;;;;;
2022/03/31 18:11:03;;;;;;;13.2;8.1;;;;;;;;;;;;;
2022/03/31 18:13:25;;;;;;;11.3;7.5;;;;;;;;;;;;;
2022/03/31 18:15:50;;;;;;;10.3;6.4;;;;;;;;;;;;;
2022/03/31 18:18:19;;;;;;;9.8;6.1;;;;;;;;;;;;;
2022/03/31 18:20:42;;;;;;;9.6;6.2;;;;;;;;;;;;;
2022/03/31 18:23:06;;;;;;;9.2;6;;;;;;;;;;;;;
2022/03/31 18:25:33;;;;;;;12.7;6.4;;;;;;;;;;;;;
2022/03/31 18:27:57;;;;;;;12;6.5;;;;;;;;;;;;;
2022/03/31 18:35:13;;;;;;;9.7;6.6;;;;;;;;;;;;;
2022/03/31 18:37:38;;;;;;;9.5;6;;;;;;;;;;;;;
2022/03/31 18:40:05;;;;;;;10;6.3;;;;;;;;;;;;;
2022/03/31 18:42:30;;;;;;;10.4;6.8;;;;;;;;;;;;;
2022/03/31 18:47:20;;;;;;;8.8;6.5;;;;;;;;;;;;;
2022/03/31 18:49:45;;;;;;;9.9;6.1;;;;;;;;;;;;;
2022/03/31 18:52:10;;;;;;;9.9;6.5;;;;;;;;;;;;;
2022/03/31 18:54:36;;;;;;;9.9;6.6;;;;;;;;;;;;;
2022/03/31 18:57:01;;;;;;;10.4;7;;;;;;;;;;;;;
2022/03/31 18:59:26;;;;;;;10.7;6.7;;;;;;;;;;;;;
2022/03/31 19:01:51;;;;;;;13.3;7.1;;;;;;;;;;;;;
2022/03/31 19:04:16;;;;;;;10.8;7.4;;;;;;;;;;;;;
2022/03/31 19:09:06;;;;;;;10.7;7.3;;;;;;;;;;;;;
2022/03/31 19:11:31;;;;;;;10.6;7.8;;;;;;;;;;;;;
2022/03/31 19:13:56;;;;;;;13.1;8.5;;;;;;;;;;;;;
2022/03/31 19:16:22;;;;;;;11.5;7.6;;;;;;;;;;;;;